createdAt,value
2017-12-26T00:00:30.994Z,18.93
2017-12-26T00:02:59.149Z,19.70
2017-12-26T00:05:27.358Z,18.10
2017-12-26T00:07:55.531Z,19.70
2017-12-26T00:10:23.701Z,21.77
2017-12-26T00:12:51.886Z,20.73
2017-12-26T00:15:20.030Z,21.37
2017-12-26T00:17:48.193Z,18.07
2017-12-26T00:20:16.341Z,24.60
2017-12-26T00:22:44.515Z,20.30
2017-12-26T00:25:12.669Z,19.67
2017-12-26T00:27:41.615Z,19.33
2017-12-26T00:30:09.786Z,19.67
2017-12-26T00:32:38.800Z,19.50
2017-12-26T00:35:06.955Z,20.57
2017-12-26T00:37:35.146Z,26.43
2017-12-26T00:40:03.302Z,27.83
2017-12-26T00:42:31.469Z,21.00
2017-12-26T00:44:59.618Z,21.40
2017-12-26T00:47:27.790Z,20.90
2017-12-26T00:49:55.951Z,21.50
2017-12-26T00:52:24.879Z,19.90
2017-12-26T00:54:53.065Z,21.37
2017-12-26T00:57:21.253Z,19.90
2017-12-26T00:59:49.402Z,21.87
2017-12-26T01:02:17.582Z,19.07
2017-12-26T01:04:45.726Z,18.60
2017-12-26T01:07:13.954Z,21.03
2017-12-26T01:09:42.113Z,22.87
2017-12-26T01:12:10.294Z,19.43
2017-12-26T01:14:38.452Z,22.90
2017-12-26T01:17:06.623Z,22.27
2017-12-26T01:19:34.770Z,19.07
2017-12-26T01:22:03.466Z,20.10
2017-12-26T01:24:31.658Z,22.27
2017-12-26T01:26:59.852Z,28.53
2017-12-26T01:29:27.997Z,24.03
2017-12-26T01:31:56.184Z,22.13
2017-12-26T01:34:24.365Z,24.70
2017-12-26T01:36:52.542Z,26.00
2017-12-26T01:39:20.690Z,24.20
2017-12-26T01:41:48.882Z,22.33
2017-12-26T01:44:17.042Z,25.77
2017-12-26T01:46:45.213Z,24.47
2017-12-26T01:49:13.354Z,22.27
2017-12-26T01:51:42.288Z,23.73
2017-12-26T01:54:10.463Z,24.07
2017-12-26T01:56:38.669Z,26.63
2017-12-26T01:59:06.821Z,20.87
2017-12-26T02:01:35.000Z,21.67
2017-12-26T02:04:03.158Z,22.73
2017-12-26T02:06:31.329Z,23.33
2017-12-26T02:08:59.482Z,22.10
2017-12-26T02:11:27.662Z,25.50
2017-12-26T02:13:55.828Z,24.23
2017-12-26T02:16:24.025Z,21.63
2017-12-26T02:18:52.197Z,21.90
2017-12-26T02:21:20.369Z,29.23
2017-12-26T02:23:48.543Z,23.30
2017-12-26T02:26:16.705Z,23.57
2017-12-26T02:28:44.889Z,27.10
2017-12-26T02:31:13.036Z,21.80
2017-12-26T02:33:41.962Z,25.80
2017-12-26T02:36:10.104Z,25.07
2017-12-26T02:38:43.945Z,20.33
2017-12-26T02:41:12.101Z,23.30
2017-12-26T02:43:40.300Z,21.90
2017-12-26T02:46:08.457Z,22.00
2017-12-26T02:48:36.636Z,22.53
2017-12-26T02:51:04.797Z,20.53
2017-12-26T02:53:32.959Z,22.70
2017-12-26T02:56:01.128Z,22.30
2017-12-26T02:58:30.054Z,24.73
2017-12-26T03:00:58.198Z,19.90
2017-12-26T03:03:27.126Z,20.37
2017-12-26T03:05:55.289Z,21.07
2017-12-26T03:08:23.469Z,21.47
2017-12-26T03:10:51.670Z,21.33
2017-12-26T03:13:20.642Z,22.73
2017-12-26T03:15:48.821Z,20.60
2017-12-26T03:18:16.993Z,20.67
2017-12-26T03:20:45.133Z,22.97
2017-12-26T03:23:13.301Z,23.33
2017-12-26T03:25:41.894Z,20.43
2017-12-26T03:28:10.063Z,22.10
2017-12-26T03:30:38.220Z,22.00
2017-12-26T03:33:07.197Z,24.27
2017-12-26T03:35:35.347Z,23.10
2017-12-26T03:38:03.930Z,22.03
2017-12-26T03:40:32.087Z,20.37
2017-12-26T03:43:00.258Z,21.63
2017-12-26T03:45:28.434Z,23.17
2017-12-26T03:47:56.613Z,28.40
2017-12-26T03:50:24.758Z,21.53
2017-12-26T03:52:52.941Z,25.23
2017-12-26T03:55:21.107Z,26.00
2017-12-26T03:57:49.306Z,29.40
2017-12-26T04:00:17.470Z,26.20
2017-12-26T04:02:45.649Z,25.17
2017-12-26T04:05:13.807Z,23.67
2017-12-26T04:07:42.008Z,27.07
2017-12-26T04:10:10.161Z,21.07
2017-12-26T04:12:38.356Z,27.27
2017-12-26T04:15:06.527Z,24.30
2017-12-26T04:17:34.697Z,23.17
2017-12-26T04:20:02.843Z,27.10
2017-12-26T04:22:31.049Z,32.03
2017-12-26T04:24:59.204Z,29.10
2017-12-26T04:27:27.361Z,22.97
2017-12-26T04:29:55.537Z,32.13
2017-12-26T04:32:23.714Z,24.67
2017-12-26T04:34:51.869Z,27.10
2017-12-26T04:37:20.825Z,25.50
2017-12-26T04:39:48.987Z,27.40
2017-12-26T04:42:17.226Z,25.63
2017-12-26T04:44:45.395Z,26.90
2017-12-26T04:47:13.557Z,25.80
2017-12-26T04:49:42.490Z,29.40
2017-12-26T04:52:10.639Z,31.53
2017-12-26T04:54:38.825Z,35.70
2017-12-26T04:57:07.070Z,30.37
2017-12-26T04:59:36.041Z,28.93
2017-12-26T05:02:05.023Z,31.67
2017-12-26T05:04:33.217Z,28.93
2017-12-26T05:07:02.151Z,26.60
2017-12-26T05:09:30.353Z,31.47
2017-12-26T05:11:58.513Z,35.60
2017-12-26T05:14:26.698Z,23.50
2017-12-26T05:16:54.845Z,26.00
2017-12-26T05:19:23.017Z,29.33
2017-12-26T05:21:51.186Z,27.37
2017-12-26T05:24:19.348Z,25.90
2017-12-26T05:26:47.510Z,28.40
2017-12-26T05:29:16.454Z,30.33
2017-12-26T05:31:44.593Z,28.50
2017-12-26T05:34:12.774Z,29.83
2017-12-26T05:36:40.953Z,30.70
2017-12-26T05:39:09.129Z,28.27
2017-12-26T05:41:37.276Z,31.60
2017-12-26T05:44:06.284Z,28.63
2017-12-26T05:46:34.437Z,29.63
2017-12-26T05:49:03.156Z,27.37
2017-12-26T05:51:31.322Z,33.27
2017-12-26T05:53:59.497Z,34.13
2017-12-26T05:56:27.656Z,32.50
2017-12-26T05:58:56.610Z,28.20
2017-12-26T06:01:24.782Z,30.37
2017-12-26T06:03:52.959Z,27.50
2017-12-26T06:06:21.114Z,29.53
2017-12-26T06:08:49.301Z,26.27
2017-12-26T06:11:17.458Z,27.63
2017-12-26T06:13:45.645Z,25.17
2017-12-26T06:16:13.805Z,25.37
2017-12-26T06:18:41.998Z,27.27
2017-12-26T06:21:10.331Z,28.27
2017-12-26T06:23:38.499Z,28.27
2017-12-26T06:26:06.670Z,29.50
2017-12-26T06:28:35.597Z,30.30
2017-12-26T06:31:03.970Z,26.40
2017-12-26T06:33:32.133Z,32.07
2017-12-26T06:36:00.287Z,30.50
2017-12-26T06:38:29.219Z,25.23
2017-12-26T06:40:57.375Z,29.90
2017-12-26T06:43:25.536Z,28.20
2017-12-26T06:45:53.683Z,25.83
2017-12-26T06:48:21.883Z,25.90
2017-12-26T06:50:50.056Z,26.77
2017-12-26T06:53:18.235Z,24.40
2017-12-26T06:55:46.415Z,27.70
2017-12-26T06:58:14.576Z,26.00
2017-12-26T07:00:42.858Z,22.40
2017-12-26T07:03:11.049Z,27.00
2017-12-26T07:05:39.206Z,28.40
2017-12-26T07:08:07.487Z,27.93
2017-12-26T07:10:35.634Z,24.20
2017-12-26T07:13:04.566Z,27.00
2017-12-26T07:15:32.742Z,24.77
2017-12-26T07:18:00.915Z,21.73
2017-12-26T07:20:34.781Z,26.27
2017-12-26T07:23:02.956Z,24.70
2017-12-26T07:25:32.090Z,25.40
2017-12-26T07:28:00.255Z,22.73
2017-12-26T07:30:28.434Z,21.47
2017-12-26T07:32:56.629Z,24.43
2017-12-26T07:35:24.862Z,23.43
2017-12-26T07:37:53.794Z,25.37
2017-12-26T07:40:22.969Z,25.10
2017-12-26T07:42:52.915Z,22.27
2017-12-26T07:45:21.290Z,22.03
2017-12-26T07:47:49.450Z,26.40
2017-12-26T07:50:17.635Z,22.83
2017-12-26T07:52:45.783Z,24.50
2017-12-26T07:55:13.945Z,26.77
2017-12-26T07:57:42.941Z,23.97
2017-12-26T08:00:11.173Z,24.77
2017-12-26T08:02:39.366Z,21.07
2017-12-26T08:05:08.310Z,22.37
2017-12-26T08:07:36.470Z,21.90
2017-12-26T08:10:04.650Z,19.57
2017-12-26T08:12:32.798Z,23.20
2017-12-26T08:15:01.832Z,25.33
2017-12-26T08:17:30.102Z,20.73
2017-12-26T08:19:58.275Z,23.47
2017-12-26T08:22:26.437Z,20.43
2017-12-26T08:24:54.609Z,23.17
2017-12-26T08:27:22.762Z,20.67
2017-12-26T08:29:51.725Z,22.27
2017-12-26T08:32:19.889Z,21.93
2017-12-26T08:34:48.089Z,22.33
2017-12-26T08:37:17.036Z,19.40
2017-12-26T08:39:45.226Z,17.60
2017-12-26T08:42:13.376Z,21.27
2017-12-26T08:44:41.586Z,17.37
2017-12-26T08:47:09.757Z,21.87
2017-12-26T08:49:38.718Z,18.40
2017-12-26T08:52:06.870Z,15.73
2017-12-26T08:54:35.083Z,18.97
2017-12-26T08:57:03.583Z,20.10
2017-12-26T08:59:31.769Z,18.50
2017-12-26T09:01:59.910Z,20.83
2017-12-26T09:04:28.164Z,16.10
2017-12-26T09:06:57.081Z,15.50
2017-12-26T09:09:26.157Z,17.93
2017-12-26T09:11:54.742Z,16.50
2017-12-26T09:14:22.906Z,15.60
2017-12-26T09:16:51.043Z,23.40
2017-12-26T09:19:19.308Z,16.80
2017-12-26T09:21:48.340Z,13.30
2017-12-26T09:24:16.506Z,17.20
2017-12-26T09:26:45.529Z,16.03
2017-12-26T09:29:13.710Z,14.50
2017-12-26T09:31:41.877Z,18.53
2017-12-26T09:34:10.043Z,15.50
2017-12-26T09:36:38.189Z,13.63
2017-12-26T09:39:07.113Z,14.03
2017-12-26T09:41:35.269Z,14.70
2017-12-26T09:44:03.455Z,13.13
2017-12-26T09:46:31.616Z,17.30
2017-12-26T09:48:59.813Z,14.17
2017-12-26T09:51:28.007Z,11.50
2017-12-26T09:53:56.198Z,12.67
2017-12-26T09:56:24.334Z,15.50
2017-12-26T09:58:52.515Z,12.67
2017-12-26T10:01:20.665Z,13.10
2017-12-26T10:03:48.851Z,15.80
2017-12-26T10:06:17.053Z,12.60
2017-12-26T10:08:45.216Z,13.13
2017-12-26T10:11:13.377Z,14.80
2017-12-26T10:13:41.543Z,16.43
2017-12-26T10:16:09.815Z,13.17
2017-12-26T10:18:37.962Z,15.60
2017-12-26T10:21:06.890Z,14.60
2017-12-26T10:23:35.137Z,14.07
2017-12-26T10:26:03.819Z,14.07
2017-12-26T10:28:32.014Z,15.23
2017-12-26T10:31:00.195Z,11.13
2017-12-26T10:33:28.448Z,10.27
2017-12-26T10:35:57.395Z,9.30
2017-12-26T10:38:25.534Z,9.63
2017-12-26T10:40:53.760Z,6.93
2017-12-26T10:43:22.728Z,8.10
2017-12-26T10:45:50.919Z,8.63
2017-12-26T10:48:19.119Z,7.83
2017-12-26T10:50:48.087Z,10.40
2017-12-26T10:53:16.303Z,12.30
2017-12-26T10:55:45.251Z,10.70
2017-12-26T10:58:13.394Z,8.23
2017-12-26T11:00:41.588Z,8.00
2017-12-26T11:03:09.831Z,9.80
2017-12-26T11:05:38.023Z,8.67
2017-12-26T11:08:06.202Z,5.40
2017-12-26T11:10:34.370Z,5.10
2017-12-26T11:13:02.847Z,4.40
2017-12-26T11:15:31.027Z,5.37
2017-12-26T11:17:59.188Z,5.33
2017-12-26T11:20:27.346Z,4.67
2017-12-26T11:22:55.523Z,5.57
2017-12-26T11:25:24.464Z,4.47
2017-12-26T11:27:52.606Z,2.83
2017-12-26T11:30:20.787Z,4.10
2017-12-26T11:32:48.938Z,3.37
2017-12-26T11:35:17.864Z,3.60
2017-12-26T11:37:45.998Z,5.40
2017-12-26T11:40:14.942Z,5.37
2017-12-26T11:42:43.106Z,3.33
2017-12-26T11:45:11.322Z,4.27
2017-12-26T11:47:40.292Z,3.23
2017-12-26T11:50:09.266Z,3.90
2017-12-26T11:52:37.406Z,3.90
2017-12-26T11:55:05.618Z,3.53
2017-12-26T11:57:33.771Z,3.37
2017-12-26T12:00:02.179Z,3.83
2017-12-26T12:02:36.074Z,2.13
2017-12-26T12:05:04.475Z,4.03
2017-12-26T12:07:32.646Z,2.37
2017-12-26T12:10:00.875Z,4.03
2017-12-26T12:12:29.053Z,2.33
2017-12-26T12:14:58.001Z,3.20
2017-12-26T12:17:26.159Z,2.40
2017-12-26T12:19:54.323Z,3.00
2017-12-26T12:22:22.471Z,3.20
2017-12-26T12:24:50.652Z,4.23
2017-12-26T12:27:18.811Z,2.80
2017-12-26T12:29:47.018Z,2.63
2017-12-26T12:32:15.185Z,1.93
2017-12-26T12:34:43.359Z,2.50
2017-12-26T12:37:11.506Z,1.70
2017-12-26T12:39:40.446Z,2.23
2017-12-26T12:42:08.599Z,1.97
2017-12-26T12:44:36.775Z,2.30
2017-12-26T12:47:05.007Z,2.07
2017-12-26T12:49:33.154Z,5.27
2017-12-26T12:52:01.622Z,3.17
2017-12-26T12:54:29.937Z,1.30
2017-12-26T12:56:58.899Z,1.47
2017-12-26T12:59:27.062Z,1.53
2017-12-26T13:01:55.223Z,1.93
2017-12-26T13:04:23.362Z,1.57
2017-12-26T13:06:51.550Z,3.73
2017-12-26T13:09:19.738Z,1.53
2017-12-26T13:11:47.922Z,1.37
2017-12-26T13:14:16.137Z,1.20
2017-12-26T13:16:44.338Z,1.03
2017-12-26T13:19:13.271Z,1.50
2017-12-26T13:21:41.511Z,2.93
2017-12-26T13:24:10.450Z,1.77
2017-12-26T13:26:38.710Z,1.63
2017-12-26T13:29:06.867Z,6.03
2017-12-26T13:31:35.029Z,1.77
2017-12-26T13:34:04.499Z,1.67
2017-12-26T13:36:32.725Z,1.70
2017-12-26T13:39:01.022Z,1.70
2017-12-26T13:41:29.342Z,1.10
2017-12-26T13:43:58.324Z,1.20
2017-12-26T13:46:26.522Z,1.60
2017-12-26T13:48:54.898Z,2.23
2017-12-26T13:51:23.080Z,1.57
2017-12-26T13:53:51.239Z,2.10
2017-12-26T13:56:19.470Z,1.33
2017-12-26T13:58:47.935Z,5.17
2017-12-26T14:01:16.117Z,2.20
2017-12-26T14:03:44.269Z,2.17
2017-12-26T14:06:12.482Z,3.30
2017-12-26T14:08:40.650Z,3.20
2017-12-26T14:11:08.842Z,1.80
2017-12-26T14:13:36.985Z,2.00
2017-12-26T14:16:05.158Z,3.63
2017-12-26T14:18:34.146Z,8.33
2017-12-26T14:21:02.750Z,2.10
2017-12-26T14:23:31.909Z,3.90
2017-12-26T14:26:00.079Z,2.67
2017-12-26T14:28:28.978Z,1.80
2017-12-26T14:30:57.158Z,2.70
2017-12-26T14:33:25.309Z,3.73
2017-12-26T14:35:54.266Z,1.80
2017-12-26T14:38:22.409Z,2.93
2017-12-26T14:40:50.596Z,6.27
2017-12-26T14:43:18.783Z,3.27
2017-12-26T14:45:46.968Z,2.83
2017-12-26T14:48:15.111Z,3.73
2017-12-26T14:50:43.285Z,3.53
2017-12-26T14:53:11.446Z,5.40
2017-12-26T14:55:39.615Z,4.30
2017-12-26T14:58:07.758Z,7.53
2017-12-26T15:00:36.684Z,2.50
2017-12-26T15:03:04.852Z,3.13
2017-12-26T15:05:33.026Z,4.63
2017-12-26T15:08:01.391Z,5.77
2017-12-26T15:10:30.646Z,4.90
2017-12-26T15:12:58.790Z,2.40
2017-12-26T15:15:26.976Z,7.80
2017-12-26T15:17:55.131Z,4.63
2017-12-26T15:20:23.347Z,4.47
2017-12-26T15:22:51.515Z,9.13
2017-12-26T15:25:19.706Z,4.83
2017-12-26T15:27:48.674Z,3.10
2017-12-26T15:30:16.832Z,2.50
2017-12-26T15:32:45.004Z,6.43
2017-12-26T15:35:13.148Z,3.50
2017-12-26T15:37:41.333Z,5.67
2017-12-26T15:40:09.487Z,4.60
2017-12-26T15:42:38.425Z,3.17
2017-12-26T15:45:06.580Z,3.63
2017-12-26T15:47:34.762Z,11.27
2017-12-26T15:50:03.578Z,5.50
2017-12-26T15:52:31.798Z,5.00
2017-12-26T15:54:59.921Z,37.73
2017-12-26T15:57:28.110Z,13.87
2017-12-26T15:59:56.268Z,5.93
2017-12-26T16:02:24.532Z,33.53
2017-12-26T16:04:52.681Z,7.90
2017-12-26T16:07:20.858Z,41.43
2017-12-26T16:09:49.039Z,44.17
2017-12-26T16:12:17.324Z,53.30
2017-12-26T16:14:45.507Z,19.10
2017-12-26T16:17:13.679Z,20.27
2017-12-26T16:19:41.986Z,39.40
2017-12-26T16:22:10.162Z,23.27
2017-12-26T16:24:38.334Z,13.63
2017-12-26T16:27:06.535Z,6.57
2017-12-26T16:29:35.445Z,5.97
2017-12-26T16:32:03.924Z,3.90
2017-12-26T16:34:32.107Z,3.47
2017-12-26T16:37:00.276Z,2.37
2017-12-26T16:39:28.418Z,5.90
2017-12-26T16:41:57.365Z,8.10
2017-12-26T16:44:25.522Z,2.40
2017-12-26T16:46:53.705Z,9.50
2017-12-26T16:49:21.906Z,6.27
2017-12-26T16:51:50.110Z,20.20
2017-12-26T16:54:19.062Z,3.60
2017-12-26T16:56:48.054Z,10.50
2017-12-26T16:59:16.194Z,8.33
2017-12-26T17:01:44.367Z,5.97
2017-12-26T17:04:12.563Z,3.30
2017-12-26T17:06:40.773Z,4.90
2017-12-26T17:09:08.922Z,2.43
2017-12-26T17:11:37.118Z,3.93
2017-12-26T17:14:05.288Z,2.80
2017-12-26T17:16:33.551Z,2.77
2017-12-26T17:19:01.723Z,3.10
2017-12-26T17:21:29.882Z,7.50
2017-12-26T17:23:58.039Z,5.23
2017-12-26T17:26:26.218Z,3.43
2017-12-26T17:28:54.384Z,5.03
2017-12-26T17:31:22.585Z,5.00
2017-12-26T17:33:50.749Z,6.27
2017-12-26T17:36:18.930Z,4.03
2017-12-26T17:38:47.120Z,6.10
2017-12-26T17:41:15.290Z,5.90
2017-12-26T17:43:43.502Z,3.80
2017-12-26T17:46:12.485Z,3.30
2017-12-26T17:48:40.642Z,2.53
2017-12-26T17:51:08.831Z,4.97
2017-12-26T17:53:37.018Z,6.37
2017-12-26T17:56:06.040Z,3.07
2017-12-26T17:58:34.187Z,3.53
2017-12-26T18:01:03.144Z,4.53
2017-12-26T18:03:31.360Z,3.03
2017-12-26T18:05:59.541Z,4.30
2017-12-26T18:08:27.710Z,19.60
2017-12-26T18:10:55.911Z,5.03
2017-12-26T18:13:24.247Z,4.10
2017-12-26T18:15:52.390Z,3.30
2017-12-26T18:18:21.485Z,3.03
2017-12-26T18:20:49.640Z,5.27
2017-12-26T18:23:19.274Z,3.80
2017-12-26T18:25:47.453Z,5.50
2017-12-26T18:28:15.614Z,2.30
2017-12-26T18:30:43.768Z,12.70
2017-12-26T18:33:11.973Z,7.63
2017-12-26T18:35:40.207Z,4.63
2017-12-26T18:38:08.393Z,2.03
2017-12-26T18:40:36.546Z,7.03
2017-12-26T18:43:05.472Z,2.37
2017-12-26T18:45:33.794Z,4.83
2017-12-26T18:48:01.984Z,3.50
2017-12-26T18:50:30.937Z,3.37
2017-12-26T18:52:59.200Z,3.40
2017-12-26T18:55:27.396Z,2.43
2017-12-26T18:57:55.585Z,3.53
2017-12-26T19:00:23.721Z,2.90
2017-12-26T19:02:51.948Z,2.07
2017-12-26T19:05:20.231Z,2.50
2017-12-26T19:07:49.290Z,4.93
2017-12-26T19:10:17.454Z,6.70
2017-12-26T19:12:45.697Z,2.97
2017-12-26T19:15:13.867Z,6.87
2017-12-26T19:17:42.051Z,5.07
2017-12-26T19:20:10.201Z,3.83
2017-12-26T19:22:39.157Z,4.03
2017-12-26T19:25:07.349Z,5.20
2017-12-26T19:27:35.657Z,6.20
2017-12-26T19:30:03.815Z,8.00
2017-12-26T19:32:32.006Z,5.03
2017-12-26T19:35:00.206Z,2.70
2017-12-26T19:37:28.393Z,4.80
2017-12-26T19:39:56.561Z,3.20
2017-12-26T19:42:24.729Z,2.10
2017-12-26T19:44:52.881Z,3.07
2017-12-26T19:47:21.058Z,2.70
2017-12-26T19:49:49.222Z,4.93
2017-12-26T19:52:18.170Z,3.13
2017-12-26T19:54:48.650Z,3.83
2017-12-26T19:57:17.311Z,6.00
2017-12-26T19:59:45.692Z,8.47
2017-12-26T20:02:13.916Z,4.77
2017-12-26T20:04:42.130Z,3.70
2017-12-26T20:07:10.396Z,2.77
2017-12-26T20:09:38.650Z,5.53
2017-12-26T20:12:07.653Z,4.23
2017-12-26T20:14:35.838Z,3.90
2017-12-26T20:17:04.592Z,2.67
2017-12-26T20:19:32.833Z,6.10
2017-12-26T20:22:01.059Z,3.53
2017-12-26T20:24:29.331Z,4.80
2017-12-26T20:26:57.611Z,4.40
2017-12-26T20:29:25.926Z,3.70
2017-12-26T20:31:54.937Z,6.80
2017-12-26T20:34:23.841Z,4.83
2017-12-26T20:36:52.295Z,2.97
2017-12-26T20:39:21.315Z,3.60
2017-12-26T20:41:49.538Z,1.70
2017-12-26T20:44:18.567Z,4.73
2017-12-26T20:46:46.787Z,2.20
2017-12-26T20:49:16.481Z,2.93
2017-12-26T20:51:44.957Z,4.23
2017-12-26T20:54:13.150Z,2.73
2017-12-26T20:56:41.469Z,6.37
2017-12-26T20:59:10.473Z,2.90
2017-12-26T21:01:38.652Z,3.00
2017-12-26T21:04:06.875Z,3.50
2017-12-26T21:06:35.037Z,2.60
2017-12-26T21:09:03.274Z,5.80
2017-12-26T21:11:31.533Z,4.10
2017-12-26T21:13:59.727Z,7.40
2017-12-26T21:16:27.958Z,2.60
2017-12-26T21:18:56.183Z,2.93
2017-12-26T21:21:25.110Z,3.03
2017-12-26T21:23:53.321Z,3.50
2017-12-26T21:26:22.477Z,3.40
2017-12-26T21:28:50.680Z,4.47
2017-12-26T21:31:18.896Z,5.37
2017-12-26T21:33:47.117Z,4.50
2017-12-26T21:36:15.310Z,4.40
2017-12-26T21:38:43.508Z,4.30
2017-12-26T21:41:12.569Z,4.00
2017-12-26T21:43:40.913Z,5.57
2017-12-26T21:46:09.089Z,3.97
2017-12-26T21:48:37.358Z,4.90
2017-12-26T21:51:05.518Z,5.83
2017-12-26T21:53:33.801Z,4.87
2017-12-26T21:56:02.673Z,3.57
2017-12-26T21:58:30.884Z,3.37
2017-12-26T22:00:59.098Z,3.27
2017-12-26T22:03:28.090Z,9.60
2017-12-26T22:05:56.269Z,3.90
2017-12-26T22:08:24.450Z,4.60
2017-12-26T22:10:52.606Z,4.00
2017-12-26T22:13:20.861Z,9.17
2017-12-26T22:15:49.033Z,4.70
2017-12-26T22:18:18.182Z,6.80
2017-12-26T22:20:47.129Z,6.67
2017-12-26T22:23:15.452Z,3.53
2017-12-26T22:25:44.431Z,5.77
2017-12-26T22:28:12.648Z,4.20
2017-12-26T22:30:40.853Z,3.30
2017-12-26T22:33:09.130Z,5.20
2017-12-26T22:35:37.293Z,6.40
2017-12-26T22:38:05.493Z,4.50
2017-12-26T22:40:33.666Z,8.53
2017-12-26T22:43:01.845Z,6.03
2017-12-26T22:45:30.008Z,5.57
2017-12-26T22:47:58.225Z,7.60
2017-12-26T22:50:27.165Z,5.87
2017-12-26T22:52:55.334Z,4.60
2017-12-26T22:55:23.559Z,4.20
2017-12-26T22:57:51.710Z,6.73
2017-12-26T23:00:19.974Z,4.73
2017-12-26T23:02:48.164Z,6.50
2017-12-26T23:05:16.393Z,6.77
2017-12-26T23:07:44.545Z,4.63
2017-12-26T23:10:12.736Z,9.07
2017-12-26T23:12:40.893Z,8.23
2017-12-26T23:15:19.258Z,4.00
2017-12-26T23:17:57.670Z,5.07
2017-12-26T23:20:31.443Z,5.17
2017-12-26T23:23:05.933Z,4.73
2017-12-26T23:25:39.753Z,3.73
2017-12-26T23:28:13.547Z,3.77
2017-12-26T23:30:47.419Z,5.60
2017-12-26T23:33:21.299Z,4.40
2017-12-26T23:35:55.178Z,8.93
2017-12-26T23:38:28.893Z,4.60
2017-12-26T23:41:03.350Z,2.73
2017-12-26T23:43:37.073Z,10.73
2017-12-26T23:46:10.807Z,4.67
2017-12-26T23:48:45.454Z,4.47
2017-12-26T23:51:19.173Z,2.70
2017-12-26T23:53:52.934Z,2.40
2017-12-26T23:56:27.546Z,3.97
2017-12-26T23:59:01.285Z,3.37
